Airfield :
LOGIN :

Register | Disclaimer

   EN    FR    IT 

 










Legend :    VFR   Marginal VFR   IFR   Intensive IFR   Very Intensive IFR
Visi :
Ceiling :
>= 8 km
>= 3000ft
5 to 8 km
1000 to 3000 ft
1500m to 5 km
500 to 1000 ft
800 to 1500m
200 to 500 ft
< 800m
< 200 ft
Symbols :   Thunderstorms  Fog  Heavy snow  Heavy precipitations  Wind > 20 kt
SIGMETs :     Misc.  Thunderstorms  Icing  Turbulence  Mountain Waves  Volcanic Ashes







- Airport Elevation : 353 ft
- IATA code : ZAG


LDZA - Zagreb Pleso

CURRENT METAR :
  • 231430Z 10004KT 050V180 CAVOK 27/12 Q1014 NOSIG

EXPIRED METARs :
  • 231400Z VRB03KT CAVOK 26/12 Q1015 NOSIG
  • 231330Z VRB02KT 9999 FEW048 26/11 Q1015 NOSIG
  • 231300Z VRB03KT 9999 FEW048 26/11 Q1015 NOSIG
  • 231230Z VRB02KT 9999 FEW048TCU 26/12 Q1015 TEMPO 31012KT SHRA
  • 231200Z VRB04KT CAVOK 26/11 Q1016 NOSIG

TAF TAF LDZA
Valid from the 23 at 12:00 until the 24 at 12:00 UTC


231125Z 2312/2412 VRB02KT CAVOK TX27/2313Z TN13/2403Z
PROB40
TEMPO 2313/2318 31015KT TSRA FEW035CB
PROB30 2403/2406 3000 MIFG BR
BECMG 2406/2408 30012KT
PROB30
TEMPO 2409/2411 4000 TSRA FEW025CB BKN030
ATIS : +385 1 6-259-214
No reported NOTAMs for that airfield.



MET'MAP, your aeronautical weather chart ! - Copyright ORBIFLY December 2007 - Disclaimer

ORBIFLY MET'MAP TEAM :

Programming & Development : Alexandra Zaïnal
Concept & Development : Baudouin d'Aumeries
Co-Development & Prog : Marc-Olivier Méhu
Technical & hardware support : Manuel Goepfert

Contact : metmap@orbifly.com




SOURCES & CREDITS :

   NOAA